sensor_id;sensor_type;location;lat;lon;timestamp;P1;durP1;ratioP1;P2;durP2;ratioP2
32082;SDS011;18597;48.328;7.932;2022-07-29T00:00:55;5.87;;;5.37;;
32082;SDS011;18597;48.328;7.932;2022-07-29T00:03:21;5.17;;;4.97;;
32082;SDS011;18597;48.328;7.932;2022-07-29T00:05:47;6.00;;;5.60;;
32082;SDS011;18597;48.328;7.932;2022-07-29T00:08:13;5.57;;;5.03;;
32082;SDS011;18597;48.328;7.932;2022-07-29T00:10:40;6.83;;;5.00;;
32082;SDS011;18597;48.328;7.932;2022-07-29T00:13:07;7.27;;;5.20;;
32082;SDS011;18597;48.328;7.932;2022-07-29T00:15:33;7.13;;;6.53;;
32082;SDS011;18597;48.328;7.932;2022-07-29T00:17:59;6.97;;;5.87;;
32082;SDS011;18597;48.328;7.932;2022-07-29T00:20:25;6.60;;;6.30;;
32082;SDS011;18597;48.328;7.932;2022-07-29T00:22:50;9.30;;;5.87;;
32082;SDS011;18597;48.328;7.932;2022-07-29T00:25:17;6.40;;;5.57;;
32082;SDS011;18597;48.328;7.932;2022-07-29T00:27:42;6.43;;;5.80;;
32082;SDS011;18597;48.328;7.932;2022-07-29T00:30:08;7.03;;;6.50;;
32082;SDS011;18597;48.328;7.932;2022-07-29T00:32:34;7.37;;;6.67;;
32082;SDS011;18597;48.328;7.932;2022-07-29T00:35:00;6.90;;;6.40;;
32082;SDS011;18597;48.328;7.932;2022-07-29T00:37:46;10.03;;;5.80;;
32082;SDS011;18597;48.328;7.932;2022-07-29T00:40:12;5.07;;;4.73;;
32082;SDS011;18597;48.328;7.932;2022-07-29T00:42:45;5.87;;;5.47;;
32082;SDS011;18597;48.328;7.932;2022-07-29T00:45:14;6.73;;;6.23;;
32082;SDS011;18597;48.328;7.932;2022-07-29T00:47:40;6.00;;;5.60;;
32082;SDS011;18597;48.328;7.932;2022-07-29T00:50:08;6.97;;;6.40;;
32082;SDS011;18597;48.328;7.932;2022-07-29T00:52:37;8.50;;;6.03;;
32082;SDS011;18597;48.328;7.932;2022-07-29T00:55:06;7.90;;;7.10;;
32082;SDS011;18597;48.328;7.932;2022-07-29T00:57:36;12.77;;;6.50;;
32082;SDS011;18597;48.328;7.932;2022-07-29T01:00:04;7.50;;;6.90;;
32082;SDS011;18597;48.328;7.932;2022-07-29T01:02:32;5.80;;;5.40;;
32082;SDS011;18597;48.328;7.932;2022-07-29T01:04:59;7.53;;;6.83;;
32082;SDS011;18597;48.328;7.932;2022-07-29T01:07:27;6.97;;;6.10;;
32082;SDS011;18597;48.328;7.932;2022-07-29T01:09:55;7.90;;;7.20;;
32082;SDS011;18597;48.328;7.932;2022-07-29T01:12:24;7.27;;;6.57;;
32082;SDS011;18597;48.328;7.932;2022-07-29T01:14:52;6.23;;;5.93;;
32082;SDS011;18597;48.328;7.932;2022-07-29T01:17:22;7.67;;;6.97;;
32082;SDS011;18597;48.328;7.932;2022-07-29T01:20:14;8.00;;;6.97;;
32082;SDS011;18597;48.328;7.932;2022-07-29T01:30:13;7.90;;;7.40;;
32082;SDS011;18597;48.328;7.932;2022-07-29T01:32:39;7.23;;;6.53;;
32082;SDS011;18597;48.328;7.932;2022-07-29T01:35:12;7.80;;;7.10;;
32082;SDS011;18597;48.328;7.932;2022-07-29T01:37:50;6.43;;;6.03;;
32082;SDS011;18597;48.328;7.932;2022-07-29T01:40:38;6.77;;;6.33;;
32082;SDS011;18597;48.328;7.932;2022-07-29T01:43:33;11.23;;;6.67;;
32082;SDS011;18597;48.328;7.932;2022-07-29T01:46:09;7.13;;;6.67;;
32082;SDS011;18597;48.328;7.932;2022-07-29T01:48:46;8.40;;;6.57;;
32082;SDS011;18597;48.328;7.932;2022-07-29T01:51:19;7.60;;;7.00;;
32082;SDS011;18597;48.328;7.932;2022-07-29T01:53:57;14.33;;;7.23;;
32082;SDS011;18597;48.328;7.932;2022-07-29T01:56:48;9.67;;;6.40;;
32082;SDS011;18597;48.328;7.932;2022-07-29T01:59:16;7.53;;;6.60;;
32082;SDS011;18597;48.328;7.932;2022-07-29T02:01:44;7.80;;;7.20;;
32082;SDS011;18597;48.328;7.932;2022-07-29T02:04:12;7.73;;;7.07;;
32082;SDS011;18597;48.328;7.932;2022-07-29T02:06:40;6.77;;;6.27;;
32082;SDS011;18597;48.328;7.932;2022-07-29T02:09:09;7.20;;;6.70;;
32082;SDS011;18597;48.328;7.932;2022-07-29T02:11:37;7.93;;;7.30;;
32082;SDS011;18597;48.328;7.932;2022-07-29T02:14:05;8.17;;;7.57;;
32082;SDS011;18597;48.328;7.932;2022-07-29T02:16:34;7.37;;;6.67;;
32082;SDS011;18597;48.328;7.932;2022-07-29T02:19:02;7.17;;;6.47;;
32082;SDS011;18597;48.328;7.932;2022-07-29T02:21:29;7.03;;;6.63;;
32082;SDS011;18597;48.328;7.932;2022-07-29T02:23:57;7.27;;;6.27;;
32082;SDS011;18597;48.328;7.932;2022-07-29T02:26:26;7.57;;;7.03;;
32082;SDS011;18597;48.328;7.932;2022-07-29T02:28:54;7.70;;;7.17;;
32082;SDS011;18597;48.328;7.932;2022-07-29T02:31:24;8.20;;;7.60;;
32082;SDS011;18597;48.328;7.932;2022-07-29T02:33:57;7.23;;;6.73;;
32082;SDS011;18597;48.328;7.932;2022-07-29T02:36:26;7.37;;;6.83;;
32082;SDS011;18597;48.328;7.932;2022-07-29T02:38:53;7.90;;;7.30;;
32082;SDS011;18597;48.328;7.932;2022-07-29T02:41:24;8.63;;;8.03;;
32082;SDS011;18597;48.328;7.932;2022-07-29T02:44:01;9.40;;;7.60;;
32082;SDS011;18597;48.328;7.932;2022-07-29T02:46:32;8.13;;;7.47;;
32082;SDS011;18597;48.328;7.932;2022-07-29T02:49:04;8.63;;;8.00;;
32082;SDS011;18597;48.328;7.932;2022-07-29T02:51:42;16.03;;;7.47;;
32082;SDS011;18597;48.328;7.932;2022-07-29T02:54:19;7.80;;;7.10;;
32082;SDS011;18597;48.328;7.932;2022-07-29T02:56:51;8.07;;;7.27;;
32082;SDS011;18597;48.328;7.932;2022-07-29T02:59:22;8.27;;;7.27;;
32082;SDS011;18597;48.328;7.932;2022-07-29T03:01:52;7.67;;;7.17;;
32082;SDS011;18597;48.328;7.932;2022-07-29T03:04:20;9.17;;;8.33;;
32082;SDS011;18597;48.328;7.932;2022-07-29T03:06:50;10.13;;;8.00;;
32082;SDS011;18597;48.328;7.932;2022-07-29T03:09:17;7.60;;;7.10;;
32082;SDS011;18597;48.328;7.932;2022-07-29T03:11:43;9.80;;;8.57;;
32082;SDS011;18597;48.328;7.932;2022-07-29T03:14:10;9.43;;;8.20;;
32082;SDS011;18597;48.328;7.932;2022-07-29T03:16:37;14.13;;;7.90;;
32082;SDS011;18597;48.328;7.932;2022-07-29T03:19:03;9.33;;;8.43;;
32082;SDS011;18597;48.328;7.932;2022-07-29T03:21:30;8.87;;;8.13;;
32082;SDS011;18597;48.328;7.932;2022-07-29T03:23:56;8.07;;;7.47;;
32082;SDS011;18597;48.328;7.932;2022-07-29T03:26:22;9.80;;;8.80;;
32082;SDS011;18597;48.328;7.932;2022-07-29T03:28:48;8.50;;;7.70;;
32082;SDS011;18597;48.328;7.932;2022-07-29T03:31:14;10.00;;;9.00;;
32082;SDS011;18597;48.328;7.932;2022-07-29T03:33:39;8.50;;;7.90;;
32082;SDS011;18597;48.328;7.932;2022-07-29T03:36:05;9.73;;;8.87;;
32082;SDS011;18597;48.328;7.932;2022-07-29T03:38:32;8.20;;;7.60;;
32082;SDS011;18597;48.328;7.932;2022-07-29T03:41:01;12.13;;;8.30;;
32082;SDS011;18597;48.328;7.932;2022-07-29T03:43:34;8.53;;;7.83;;
32082;SDS011;18597;48.328;7.932;2022-07-29T03:46:03;8.57;;;7.70;;
32082;SDS011;18597;48.328;7.932;2022-07-29T03:48:34;9.60;;;8.53;;
32082;SDS011;18597;48.328;7.932;2022-07-29T03:51:04;9.17;;;8.47;;
32082;SDS011;18597;48.328;7.932;2022-07-29T03:53:31;10.27;;;9.10;;
32082;SDS011;18597;48.328;7.932;2022-07-29T03:56:00;8.87;;;8.13;;
32082;SDS011;18597;48.328;7.932;2022-07-29T03:58:28;8.50;;;7.80;;
32082;SDS011;18597;48.328;7.932;2022-07-29T04:00:56;9.40;;;8.60;;
32082;SDS011;18597;48.328;7.932;2022-07-29T04:03:23;9.17;;;8.43;;
32082;SDS011;18597;48.328;7.932;2022-07-29T04:06:05;8.37;;;7.80;;
32082;SDS011;18597;48.328;7.932;2022-07-29T04:08:32;8.53;;;7.70;;
32082;SDS011;18597;48.328;7.932;2022-07-29T04:10:59;8.77;;;8.07;;
32082;SDS011;18597;48.328;7.932;2022-07-29T04:13:26;14.13;;;7.77;;
32082;SDS011;18597;48.328;7.932;2022-07-29T04:15:52;9.40;;;8.50;;
32082;SDS011;18597;48.328;7.932;2022-07-29T04:18:18;8.90;;;8.20;;
32082;SDS011;18597;48.328;7.932;2022-07-29T04:20:44;14.63;;;8.67;;
32082;SDS011;18597;48.328;7.932;2022-07-29T04:23:10;8.53;;;7.83;;
32082;SDS011;18597;48.328;7.932;2022-07-29T04:25:38;9.03;;;7.77;;
32082;SDS011;18597;48.328;7.932;2022-07-29T04:28:05;9.53;;;8.63;;
32082;SDS011;18597;48.328;7.932;2022-07-29T04:30:31;8.13;;;7.63;;
32082;SDS011;18597;48.328;7.932;2022-07-29T04:32:59;9.53;;;8.60;;
32082;SDS011;18597;48.328;7.932;2022-07-29T04:35:27;8.10;;;7.40;;
32082;SDS011;18597;48.328;7.932;2022-07-29T04:37:54;8.53;;;7.83;;
32082;SDS011;18597;48.328;7.932;2022-07-29T04:40:20;11.53;;;8.67;;
32082;SDS011;18597;48.328;7.932;2022-07-29T04:42:46;8.93;;;7.47;;
32082;SDS011;18597;48.328;7.932;2022-07-29T04:45:12;8.07;;;7.47;;
32082;SDS011;18597;48.328;7.932;2022-07-29T04:47:38;9.30;;;8.53;;
32082;SDS011;18597;48.328;7.932;2022-07-29T04:50:04;8.20;;;7.70;;
32082;SDS011;18597;48.328;7.932;2022-07-29T04:52:32;7.53;;;7.03;;
32082;SDS011;18597;48.328;7.932;2022-07-29T04:54:59;8.30;;;7.67;;
32082;SDS011;18597;48.328;7.932;2022-07-29T04:57:25;10.00;;;8.40;;
32082;SDS011;18597;48.328;7.932;2022-07-29T04:59:51;8.70;;;7.90;;
32082;SDS011;18597;48.328;7.932;2022-07-29T05:02:16;8.83;;;7.90;;
32082;SDS011;18597;48.328;7.932;2022-07-29T05:04:42;8.90;;;8.00;;
32082;SDS011;18597;48.328;7.932;2022-07-29T05:07:08;7.93;;;7.33;;
32082;SDS011;18597;48.328;7.932;2022-07-29T05:09:34;15.83;;;8.17;;
32082;SDS011;18597;48.328;7.932;2022-07-29T05:12:00;9.87;;;9.07;;
32082;SDS011;18597;48.328;7.932;2022-07-29T05:14:26;7.43;;;6.83;;
32082;SDS011;18597;48.328;7.932;2022-07-29T05:16:51;22.27;;;13.90;;
32082;SDS011;18597;48.328;7.932;2022-07-29T05:19:21;8.10;;;5.60;;
32082;SDS011;18597;48.328;7.932;2022-07-29T05:21:47;5.73;;;5.53;;
32082;SDS011;18597;48.328;7.932;2022-07-29T05:24:13;7.20;;;6.33;;
32082;SDS011;18597;48.328;7.932;2022-07-29T05:26:39;7.47;;;4.60;;
32082;SDS011;18597;48.328;7.932;2022-07-29T05:29:05;5.57;;;5.13;;
32082;SDS011;18597;48.328;7.932;2022-07-29T05:31:31;5.73;;;5.23;;
32082;SDS011;18597;48.328;7.932;2022-07-29T05:33:58;5.30;;;5.00;;
32082;SDS011;18597;48.328;7.932;2022-07-29T05:36:24;5.13;;;4.70;;
32082;SDS011;18597;48.328;7.932;2022-07-29T05:38:50;5.30;;;5.00;;
32082;SDS011;18597;48.328;7.932;2022-07-29T05:41:17;4.73;;;4.63;;
32082;SDS011;18597;48.328;7.932;2022-07-29T05:43:43;6.83;;;5.50;;
32082;SDS011;18597;48.328;7.932;2022-07-29T05:46:09;5.83;;;5.50;;
32082;SDS011;18597;48.328;7.932;2022-07-29T05:48:35;6.37;;;5.50;;
32082;SDS011;18597;48.328;7.932;2022-07-29T05:51:01;6.30;;;5.80;;
32082;SDS011;18597;48.328;7.932;2022-07-29T05:53:27;5.40;;;5.20;;
32082;SDS011;18597;48.328;7.932;2022-07-29T05:55:53;7.00;;;5.20;;
32082;SDS011;18597;48.328;7.932;2022-07-29T05:58:19;16.40;;;5.67;;
32082;SDS011;18597;48.328;7.932;2022-07-29T06:00:45;5.30;;;4.80;;
32082;SDS011;18597;48.328;7.932;2022-07-29T06:03:11;5.50;;;5.10;;
32082;SDS011;18597;48.328;7.932;2022-07-29T06:05:37;4.80;;;4.50;;
32082;SDS011;18597;48.328;7.932;2022-07-29T06:08:03;4.90;;;4.63;;
32082;SDS011;18597;48.328;7.932;2022-07-29T06:10:32;4.97;;;4.07;;
32082;SDS011;18597;48.328;7.932;2022-07-29T06:13:00;5.70;;;5.10;;
32082;SDS011;18597;48.328;7.932;2022-07-29T06:15:26;4.33;;;4.03;;
32082;SDS011;18597;48.328;7.932;2022-07-29T06:17:52;4.40;;;4.07;;
32082;SDS011;18597;48.328;7.932;2022-07-29T06:20:18;5.10;;;4.27;;
32082;SDS011;18597;48.328;7.932;2022-07-29T06:22:44;5.43;;;5.10;;
32082;SDS011;18597;48.328;7.932;2022-07-29T06:25:10;3.93;;;3.77;;
32082;SDS011;18597;48.328;7.932;2022-07-29T06:27:36;3.70;;;3.60;;
32082;SDS011;18597;48.328;7.932;2022-07-29T06:30:02;4.03;;;3.93;;
32082;SDS011;18597;48.328;7.932;2022-07-29T06:32:31;3.70;;;3.37;;
32082;SDS011;18597;48.328;7.932;2022-07-29T06:34:58;4.07;;;3.63;;
32082;SDS011;18597;48.328;7.932;2022-07-29T06:37:24;3.50;;;3.50;;
32082;SDS011;18597;48.328;7.932;2022-07-29T06:39:50;3.10;;;2.90;;
32082;SDS011;18597;48.328;7.932;2022-07-29T06:42:35;2.90;;;2.72;;
32082;SDS011;18597;48.328;7.932;2022-07-29T06:45:01;3.57;;;3.47;;
32082;SDS011;18597;48.328;7.932;2022-07-29T06:47:27;4.10;;;3.77;;
32082;SDS011;18597;48.328;7.932;2022-07-29T06:49:54;4.27;;;3.97;;
32082;SDS011;18597;48.328;7.932;2022-07-29T06:52:19;4.00;;;3.70;;
32082;SDS011;18597;48.328;7.932;2022-07-29T06:54:45;3.70;;;3.47;;
32082;SDS011;18597;48.328;7.932;2022-07-29T06:57:13;5.37;;;4.43;;
32082;SDS011;18597;48.328;7.932;2022-07-29T06:59:39;4.67;;;4.37;;
32082;SDS011;18597;48.328;7.932;2022-07-29T07:02:05;8.13;;;5.67;;
32082;SDS011;18597;48.328;7.932;2022-07-29T07:04:31;4.60;;;3.97;;
32082;SDS011;18597;48.328;7.932;2022-07-29T07:06:57;4.20;;;3.90;;
32082;SDS011;18597;48.328;7.932;2022-07-29T07:09:24;4.20;;;3.83;;
32082;SDS011;18597;48.328;7.932;2022-07-29T07:11:50;3.27;;;3.17;;
32082;SDS011;18597;48.328;7.932;2022-07-29T07:14:15;4.60;;;3.40;;
32082;SDS011;18597;48.328;7.932;2022-07-29T07:16:41;8.73;;;3.00;;
32082;SDS011;18597;48.328;7.932;2022-07-29T07:19:07;3.17;;;2.92;;
32082;SDS011;18597;48.328;7.932;2022-07-29T07:21:33;2.50;;;2.30;;
32082;SDS011;18597;48.328;7.932;2022-07-29T07:23:59;3.22;;;1.92;;
32082;SDS011;18597;48.328;7.932;2022-07-29T07:26:25;4.70;;;1.80;;
32082;SDS011;18597;48.328;7.932;2022-07-29T07:28:52;1.60;;;1.60;;
32082;SDS011;18597;48.328;7.932;2022-07-29T07:31:18;1.70;;;1.40;;
32082;SDS011;18597;48.328;7.932;2022-07-29T07:33:44;1.52;;;1.42;;
32082;SDS011;18597;48.328;7.932;2022-07-29T07:36:10;1.70;;;1.60;;
32082;SDS011;18597;48.328;7.932;2022-07-29T07:38:36;8.05;;;1.52;;
32082;SDS011;18597;48.328;7.932;2022-07-29T07:41:02;3.10;;;1.42;;
32082;SDS011;18597;48.328;7.932;2022-07-29T07:43:28;4.72;;;1.60;;
32082;SDS011;18597;48.328;7.932;2022-07-29T07:45:54;1.60;;;1.50;;
32082;SDS011;18597;48.328;7.932;2022-07-29T07:48:20;4.18;;;1.20;;
32082;SDS011;18597;48.328;7.932;2022-07-29T07:50:46;2.03;;;1.92;;
32082;SDS011;18597;48.328;7.932;2022-07-29T07:53:14;2.20;;;1.63;;
32082;SDS011;18597;48.328;7.932;2022-07-29T07:55:40;1.30;;;1.30;;
32082;SDS011;18597;48.328;7.932;2022-07-29T07:58:07;2.88;;;1.60;;
32082;SDS011;18597;48.328;7.932;2022-07-29T08:00:34;1.95;;;1.73;;
32082;SDS011;18597;48.328;7.932;2022-07-29T08:03:00;2.92;;;1.98;;
32082;SDS011;18597;48.328;7.932;2022-07-29T08:05:26;1.90;;;1.55;;
32082;SDS011;18597;48.328;7.932;2022-07-29T08:07:52;2.65;;;2.45;;
32082;SDS011;18597;48.328;7.932;2022-07-29T08:10:19;2.45;;;2.03;;
32082;SDS011;18597;48.328;7.932;2022-07-29T08:13:06;2.80;;;1.55;;
32082;SDS011;18597;48.328;7.932;2022-07-29T08:15:33;6.15;;;2.40;;
32082;SDS011;18597;48.328;7.932;2022-07-29T08:18:00;1.67;;;1.58;;
32082;SDS011;18597;48.328;7.932;2022-07-29T08:20:26;2.58;;;1.95;;
32082;SDS011;18597;48.328;7.932;2022-07-29T08:22:52;2.10;;;1.90;;
32082;SDS011;18597;48.328;7.932;2022-07-29T08:25:18;1.90;;;1.80;;
32082;SDS011;18597;48.328;7.932;2022-07-29T08:27:46;3.50;;;2.00;;
32082;SDS011;18597;48.328;7.932;2022-07-29T08:30:12;2.80;;;2.63;;
32082;SDS011;18597;48.328;7.932;2022-07-29T08:32:38;4.50;;;2.65;;
32082;SDS011;18597;48.328;7.932;2022-07-29T08:35:05;2.40;;;2.40;;
32082;SDS011;18597;48.328;7.932;2022-07-29T08:37:31;2.40;;;2.20;;
32082;SDS011;18597;48.328;7.932;2022-07-29T08:39:57;5.67;;;3.10;;
32082;SDS011;18597;48.328;7.932;2022-07-29T08:42:23;9.37;;;2.87;;
32082;SDS011;18597;48.328;7.932;2022-07-29T08:44:48;3.87;;;3.23;;
32082;SDS011;18597;48.328;7.932;2022-07-29T08:47:15;2.70;;;2.40;;
32082;SDS011;18597;48.328;7.932;2022-07-29T08:49:42;7.47;;;2.67;;
32082;SDS011;18597;48.328;7.932;2022-07-29T08:52:10;2.47;;;2.37;;
32082;SDS011;18597;48.328;7.932;2022-07-29T08:54:36;4.23;;;2.73;;
32082;SDS011;18597;48.328;7.932;2022-07-29T08:57:04;2.80;;;2.60;;
32082;SDS011;18597;48.328;7.932;2022-07-29T08:59:30;10.93;;;2.97;;
32082;SDS011;18597;48.328;7.932;2022-07-29T09:01:59;3.60;;;2.13;;
32082;SDS011;18597;48.328;7.932;2022-07-29T09:04:29;2.73;;;2.60;;
32082;SDS011;18597;48.328;7.932;2022-07-29T09:06:57;8.87;;;2.80;;
32082;SDS011;18597;48.328;7.932;2022-07-29T09:09:28;5.30;;;3.50;;
32082;SDS011;18597;48.328;7.932;2022-07-29T09:11:55;3.13;;;3.00;;
32082;SDS011;18597;48.328;7.932;2022-07-29T09:14:21;3.60;;;1.93;;
32082;SDS011;18597;48.328;7.932;2022-07-29T09:16:48;5.67;;;2.77;;
32082;SDS011;18597;48.328;7.932;2022-07-29T09:19:28;9.17;;;3.13;;
32082;SDS011;18597;48.328;7.932;2022-07-29T09:21:58;2.67;;;2.57;;
32082;SDS011;18597;48.328;7.932;2022-07-29T09:24:42;3.43;;;2.73;;
32082;SDS011;18597;48.328;7.932;2022-07-29T09:27:19;3.40;;;2.67;;
32082;SDS011;18597;48.328;7.932;2022-07-29T09:30:06;6.27;;;3.10;;
32082;SDS011;18597;48.328;7.932;2022-07-29T09:33:07;6.10;;;2.70;;
32082;SDS011;18597;48.328;7.932;2022-07-29T09:35:26;3.03;;;2.93;;
32082;SDS011;18597;48.328;7.932;2022-07-29T09:37:53;3.93;;;2.97;;
32082;SDS011;18597;48.328;7.932;2022-07-29T09:40:21;3.07;;;2.83;;
32082;SDS011;18597;48.328;7.932;2022-07-29T09:42:51;3.47;;;3.17;;
32082;SDS011;18597;48.328;7.932;2022-07-29T09:45:25;4.10;;;3.13;;
32082;SDS011;18597;48.328;7.932;2022-07-29T09:47:59;4.17;;;3.10;;
32082;SDS011;18597;48.328;7.932;2022-07-29T09:50:43;4.20;;;3.80;;
32082;SDS011;18597;48.328;7.932;2022-07-29T09:53:11;2.70;;;2.60;;
32082;SDS011;18597;48.328;7.932;2022-07-29T09:55:54;9.83;;;3.27;;
32082;SDS011;18597;48.328;7.932;2022-07-29T09:58:20;8.50;;;7.80;;
32082;SDS011;18597;48.328;7.932;2022-07-29T10:00:48;2.67;;;2.57;;
32082;SDS011;18597;48.328;7.932;2022-07-29T10:03:15;2.83;;;2.33;;
32082;SDS011;18597;48.328;7.932;2022-07-29T10:05:42;2.57;;;2.37;;
32082;SDS011;18597;48.328;7.932;2022-07-29T10:08:10;5.73;;;2.13;;
32082;SDS011;18597;48.328;7.932;2022-07-29T10:10:39;2.27;;;2.20;;
32082;SDS011;18597;48.328;7.932;2022-07-29T10:13:09;3.13;;;2.53;;
32082;SDS011;18597;48.328;7.932;2022-07-29T10:15:39;2.20;;;2.10;;
32082;SDS011;18597;48.328;7.932;2022-07-29T10:18:08;3.80;;;2.30;;
32082;SDS011;18597;48.328;7.932;2022-07-29T10:20:36;5.90;;;2.77;;
32082;SDS011;18597;48.328;7.932;2022-07-29T10:23:03;6.83;;;3.30;;
32082;SDS011;18597;48.328;7.932;2022-07-29T10:25:29;3.90;;;3.30;;
32082;SDS011;18597;48.328;7.932;2022-07-29T10:27:55;2.80;;;2.60;;
32082;SDS011;18597;48.328;7.932;2022-07-29T10:30:23;3.47;;;3.27;;
32082;SDS011;18597;48.328;7.932;2022-07-29T10:33:04;8.00;;;2.60;;
32082;SDS011;18597;48.328;7.932;2022-07-29T10:39:40;3.60;;;2.50;;
32082;SDS011;18597;48.328;7.932;2022-07-29T10:43:04;2.87;;;2.77;;
32082;SDS011;18597;48.328;7.932;2022-07-29T10:45:47;6.70;;;2.70;;
32082;SDS011;18597;48.328;7.932;2022-07-29T10:48:19;5.53;;;2.87;;
32082;SDS011;18597;48.328;7.932;2022-07-29T10:53:45;5.20;;;2.10;;
32082;SDS011;18597;48.328;7.932;2022-07-29T10:56:25;8.50;;;2.80;;
32082;SDS011;18597;48.328;7.932;2022-07-29T10:59:26;2.23;;;2.13;;
32082;SDS011;18597;48.328;7.932;2022-07-29T11:01:56;3.10;;;2.60;;
32082;SDS011;18597;48.328;7.932;2022-07-29T11:07:14;2.23;;;2.13;;
32082;SDS011;18597;48.328;7.932;2022-07-29T11:09:41;2.77;;;2.10;;
32082;SDS011;18597;48.328;7.932;2022-07-29T11:15:13;2.83;;;1.92;;
32082;SDS011;18597;48.328;7.932;2022-07-29T11:23:30;4.78;;;2.08;;
32082;SDS011;18597;48.328;7.932;2022-07-29T11:26:16;4.68;;;1.85;;
32082;SDS011;18597;48.328;7.932;2022-07-29T11:34:37;5.90;;;2.50;;
32082;SDS011;18597;48.328;7.932;2022-07-29T11:37:13;2.50;;;2.20;;
32082;SDS011;18597;48.328;7.932;2022-07-29T11:39:43;2.60;;;2.47;;
32082;SDS011;18597;48.328;7.932;2022-07-29T11:45:00;3.78;;;2.95;;
32082;SDS011;18597;48.328;7.932;2022-07-29T11:47:36;5.38;;;1.90;;
32082;SDS011;18597;48.328;7.932;2022-07-29T11:50:05;2.67;;;2.35;;
32082;SDS011;18597;48.328;7.932;2022-07-29T11:52:36;5.75;;;5.38;;
32082;SDS011;18597;48.328;7.932;2022-07-29T11:55:08;3.22;;;2.42;;
32082;SDS011;18597;48.328;7.932;2022-07-29T11:57:38;4.43;;;2.53;;
32082;SDS011;18597;48.328;7.932;2022-07-29T12:00:22;3.40;;;3.03;;
32082;SDS011;18597;48.328;7.932;2022-07-29T12:03:07;3.80;;;2.70;;
32082;SDS011;18597;48.328;7.932;2022-07-29T12:05:38;2.13;;;2.03;;
32082;SDS011;18597;48.328;7.932;2022-07-29T12:08:09;4.63;;;2.37;;
32082;SDS011;18597;48.328;7.932;2022-07-29T12:10:44;6.10;;;2.80;;
32082;SDS011;18597;48.328;7.932;2022-07-29T12:13:13;3.50;;;2.87;;
32082;SDS011;18597;48.328;7.932;2022-07-29T12:15:40;5.53;;;2.80;;
32082;SDS011;18597;48.328;7.932;2022-07-29T12:18:24;3.13;;;2.50;;
32082;SDS011;18597;48.328;7.932;2022-07-29T12:20:58;4.63;;;2.50;;
32082;SDS011;18597;48.328;7.932;2022-07-29T12:23:29;3.37;;;3.17;;
32082;SDS011;18597;48.328;7.932;2022-07-29T12:25:57;2.97;;;2.17;;
32082;SDS011;18597;48.328;7.932;2022-07-29T12:28:24;4.93;;;2.83;;
32082;SDS011;18597;48.328;7.932;2022-07-29T12:30:50;10.23;;;4.07;;
32082;SDS011;18597;48.328;7.932;2022-07-29T12:33:21;7.10;;;2.93;;
32082;SDS011;18597;48.328;7.932;2022-07-29T12:35:51;2.93;;;2.53;;
32082;SDS011;18597;48.328;7.932;2022-07-29T12:38:24;4.27;;;2.37;;
32082;SDS011;18597;48.328;7.932;2022-07-29T12:40:51;3.17;;;2.60;;
32082;SDS011;18597;48.328;7.932;2022-07-29T12:43:19;2.67;;;2.53;;
32082;SDS011;18597;48.328;7.932;2022-07-29T12:45:48;5.30;;;2.40;;
32082;SDS011;18597;48.328;7.932;2022-07-29T12:48:31;3.10;;;2.83;;
32082;SDS011;18597;48.328;7.932;2022-07-29T12:51:03;7.13;;;2.63;;
32082;SDS011;18597;48.328;7.932;2022-07-29T12:53:31;3.40;;;2.90;;
32082;SDS011;18597;48.328;7.932;2022-07-29T12:55:57;2.43;;;2.33;;
32082;SDS011;18597;48.328;7.932;2022-07-29T13:00:59;2.60;;;2.43;;
32082;SDS011;18597;48.328;7.932;2022-07-29T13:03:44;2.43;;;2.33;;
32082;SDS011;18597;48.328;7.932;2022-07-29T13:06:49;2.50;;;2.30;;
32082;SDS011;18597;48.328;7.932;2022-07-29T13:09:09;2.07;;;2.07;;
32082;SDS011;18597;48.328;7.932;2022-07-29T13:11:46;3.90;;;2.80;;
32082;SDS011;18597;48.328;7.932;2022-07-29T13:14:29;2.67;;;2.47;;
32082;SDS011;18597;48.328;7.932;2022-07-29T13:19:41;2.50;;;2.40;;
32082;SDS011;18597;48.328;7.932;2022-07-29T13:22:18;10.07;;;2.97;;
32082;SDS011;18597;48.328;7.932;2022-07-29T13:24:49;2.83;;;1.87;;
32082;SDS011;18597;48.328;7.932;2022-07-29T13:27:22;6.90;;;2.00;;
32082;SDS011;18597;48.328;7.932;2022-07-29T13:29:51;2.73;;;2.47;;
32082;SDS011;18597;48.328;7.932;2022-07-29T13:32:18;7.37;;;2.80;;
32082;SDS011;18597;48.328;7.932;2022-07-29T13:34:45;2.70;;;2.50;;
32082;SDS011;18597;48.328;7.932;2022-07-29T13:37:11;6.80;;;2.47;;
32082;SDS011;18597;48.328;7.932;2022-07-29T13:39:37;5.83;;;2.30;;
32082;SDS011;18597;48.328;7.932;2022-07-29T13:42:03;2.17;;;2.07;;
32082;SDS011;18597;48.328;7.932;2022-07-29T13:44:30;2.97;;;2.00;;
32082;SDS011;18597;48.328;7.932;2022-07-29T13:46:55;3.27;;;3.07;;
32082;SDS011;18597;48.328;7.932;2022-07-29T13:49:23;3.03;;;2.67;;
32082;SDS011;18597;48.328;7.932;2022-07-29T13:51:50;4.07;;;3.03;;
32082;SDS011;18597;48.328;7.932;2022-07-29T13:54:16;2.17;;;2.07;;
32082;SDS011;18597;48.328;7.932;2022-07-29T13:56:42;3.70;;;2.80;;
32082;SDS011;18597;48.328;7.932;2022-07-29T13:59:07;2.70;;;2.20;;
32082;SDS011;18597;48.328;7.932;2022-07-29T14:01:34;2.50;;;2.30;;
32082;SDS011;18597;48.328;7.932;2022-07-29T14:04:00;3.40;;;2.40;;
32082;SDS011;18597;48.328;7.932;2022-07-29T14:06:26;3.37;;;3.10;;
32082;SDS011;18597;48.328;7.932;2022-07-29T14:08:52;3.50;;;2.20;;
32082;SDS011;18597;48.328;7.932;2022-07-29T14:11:18;2.67;;;1.67;;
32082;SDS011;18597;48.328;7.932;2022-07-29T14:13:44;7.97;;;2.70;;
32082;SDS011;18597;48.328;7.932;2022-07-29T14:16:10;2.33;;;2.13;;
32082;SDS011;18597;48.328;7.932;2022-07-29T14:18:36;4.97;;;3.30;;
32082;SDS011;18597;48.328;7.932;2022-07-29T14:21:02;2.70;;;2.60;;
32082;SDS011;18597;48.328;7.932;2022-07-29T14:23:28;5.70;;;2.38;;
32082;SDS011;18597;48.328;7.932;2022-07-29T14:25:54;6.40;;;2.60;;
32082;SDS011;18597;48.328;7.932;2022-07-29T14:28:20;4.17;;;2.83;;
32082;SDS011;18597;48.328;7.932;2022-07-29T14:30:46;11.87;;;3.30;;
32082;SDS011;18597;48.328;7.932;2022-07-29T14:33:11;9.23;;;3.03;;
32082;SDS011;18597;48.328;7.932;2022-07-29T14:35:38;4.20;;;2.60;;
32082;SDS011;18597;48.328;7.932;2022-07-29T14:38:04;13.60;;;2.87;;
32082;SDS011;18597;48.328;7.932;2022-07-29T14:40:30;3.73;;;2.87;;
32082;SDS011;18597;48.328;7.932;2022-07-29T14:42:56;5.27;;;2.60;;
32082;SDS011;18597;48.328;7.932;2022-07-29T14:45:21;3.13;;;3.03;;
32082;SDS011;18597;48.328;7.932;2022-07-29T14:47:47;2.47;;;2.37;;
32082;SDS011;18597;48.328;7.932;2022-07-29T14:50:15;6.53;;;2.60;;
32082;SDS011;18597;48.328;7.932;2022-07-29T14:52:41;2.73;;;2.63;;
32082;SDS011;18597;48.328;7.932;2022-07-29T14:55:07;3.47;;;3.27;;
32082;SDS011;18597;48.328;7.932;2022-07-29T14:57:33;9.50;;;3.10;;
32082;SDS011;18597;48.328;7.932;2022-07-29T14:59:59;2.87;;;2.73;;
32082;SDS011;18597;48.328;7.932;2022-07-29T15:02:26;5.63;;;2.17;;
32082;SDS011;18597;48.328;7.932;2022-07-29T15:04:52;5.07;;;2.57;;
32082;SDS011;18597;48.328;7.932;2022-07-29T15:07:17;2.23;;;2.10;;
32082;SDS011;18597;48.328;7.932;2022-07-29T15:09:43;1.93;;;1.80;;
32082;SDS011;18597;48.328;7.932;2022-07-29T15:12:10;2.87;;;2.27;;
32082;SDS011;18597;48.328;7.932;2022-07-29T15:14:36;2.70;;;2.50;;
32082;SDS011;18597;48.328;7.932;2022-07-29T15:17:02;2.60;;;2.17;;
32082;SDS011;18597;48.328;7.932;2022-07-29T15:19:28;3.70;;;1.90;;
32082;SDS011;18597;48.328;7.932;2022-07-29T15:21:54;7.03;;;2.23;;
32082;SDS011;18597;48.328;7.932;2022-07-29T15:24:20;2.33;;;2.27;;
32082;SDS011;18597;48.328;7.932;2022-07-29T15:26:46;2.83;;;2.10;;
32082;SDS011;18597;48.328;7.932;2022-07-29T15:29:12;4.40;;;1.90;;
32082;SDS011;18597;48.328;7.932;2022-07-29T15:31:39;7.03;;;2.47;;
32082;SDS011;18597;48.328;7.932;2022-07-29T15:34:05;2.27;;;2.13;;
32082;SDS011;18597;48.328;7.932;2022-07-29T15:36:31;2.47;;;2.27;;
32082;SDS011;18597;48.328;7.932;2022-07-29T15:38:57;4.13;;;2.10;;